WetterOnline ( https://www.wetteronline.de )

Wetter aktuell Dünwald

Aktuelles Wetter: Göttingen (171m)

6-stündlich | Neueste Meldungen
Ortszeit Temperatur Wetter
Mi, 29.05. 14:00 17.6° C bedeckt
Mi, 29.05. 8:00 15.3° C bewölkt
Mi, 29.05. 2:00 13.9° C bedeckt
Di, 28.05. 20:00 16.2° C fast wolkenlos
Di, 28.05. 14:00 16.1° C leicht bewölkt
Di, 28.05. 8:00 12.1° C bedeckt
Di, 28.05. 2:00 13.8° C bewölkt
Mo, 27.05. 20:00 17.6° C leichter Regen
Ortszeit Temperatur Wetter
Mi, 29.05. 19:00 17.2° C bewölkt
Mi, 29.05. 18:50 17.2° C bewölkt
Mi, 29.05. 18:40 17.5° C bewölkt
Mi, 29.05. 18:30 18.1° C wolkig
Mi, 29.05. 18:20 18.1° C wolkig
Mi, 29.05. 18:10 18.6° C leicht bewölkt
Mi, 29.05. 18:00 18.2° C fast wolkenlos
Mi, 29.05. 17:30 18.1° C wolkig
Mi, 29.05. 17:00 17.7° C bewölkt
Mi, 29.05. 16:30 15.6° C leichter Regen
Mi, 29.05. 16:00 16.1° C leichter Regen
Ortszeit Relative Feuchte Sichtweite
Mi, 29.05. 14:00 75% 65 km
Mi, 29.05. 8:00 75% >70 km
Mi, 29.05. 2:00 70% >70 km
Di, 28.05. 20:00 59% >70 km
Di, 28.05. 14:00 61% 50 km
Di, 28.05. 8:00 87% 30 km
Di, 28.05. 2:00 95% 17 km
Mo, 27.05. 20:00 73% 55 km
Ortszeit Relative Feuchte Sichtweite
Mi, 29.05. 19:00 77% >70 km
Mi, 29.05. 18:50 77% -
Mi, 29.05. 18:40 75% -
Mi, 29.05. 18:30 71% 65 km
Mi, 29.05. 18:20 71% -
Mi, 29.05. 18:10 73% -
Mi, 29.05. 18:00 74% >70 km
Mi, 29.05. 17:30 76% 50 km
Mi, 29.05. 17:00 80% 60 km
Mi, 29.05. 16:30 94% 20 km
Mi, 29.05. 16:00 89% 10 km
Ortszeit Niederschlagsmenge Niederschlagsart
Mi, 29.05. 14:00 0.1 l/m2 in 6 Std. Regen
Mi, 29.05. 8:00 0.1 l/m2 in 12 Std. Regen
Mi, 29.05. 2:00 0.1 l/m2 in 6 Std. Regen
Di, 28.05. 20:00 0.6 l/m2 in 12 Std. -
Di, 28.05. 14:00 0.6 l/m2 in 6 Std. Regen
Di, 28.05. 8:00 8 l/m2 in 12 Std. -
Di, 28.05. 2:00 8 l/m2 in 6 Std. Regen
Mo, 27.05. 20:00 0.1 l/m2 in 12 Std. Regen
Ortszeit Niederschlagsmenge Niederschlagsart
Mi, 29.05. 19:00 0.0 l/m2 in 1 Std. -
Mi, 29.05. 18:50 keine Meldung -
Mi, 29.05. 18:40 keine Meldung -
Mi, 29.05. 18:30 0.0 l/m2 in 30 Min -
Mi, 29.05. 18:20 keine Meldung -
Mi, 29.05. 18:10 keine Meldung -
Mi, 29.05. 18:00 0.0 l/m2 in 1 Std. -
Mi, 29.05. 17:30 0.0 l/m2 in 30 Min -
Mi, 29.05. 17:00 2.3 l/m2 in 1 Std. Regen
Mi, 29.05. 16:30 2.3 l/m2 in 30 Min -
Mi, 29.05. 16:00 0.9 l/m2 in 1 Std. Regen
Ortszeit Stärke Spitze Richtung
km/h Bft. km/h Grad Sektor
Mi, 29.05. 14:00 14 3 36 190° S
Mi, 29.05. 8:00 15 3 26 170° S
Mi, 29.05. 2:00 15 3 24 150° SO
Di, 28.05. 20:00 9 2 24 200° S
Di, 28.05. 14:00 9 2 35 200° S
Di, 28.05. 8:00 11 2 25 310° NW
Di, 28.05. 2:00 7 2 18 240° SW
Mo, 27.05. 20:00 17 3 28 240° SW
Ortszeit Stärke Spitze Richtung
km/h Bft. km/h Grad Sektor
Mi, 29.05. 19:00 14 3 32 180° S
Mi, 29.05. 18:50 14 3 - 180° S
Mi, 29.05. 18:40 18 3 - 180° S
Mi, 29.05. 18:30 15 3 31 190° S
Mi, 29.05. 18:20 15 3 - 190° S
Mi, 29.05. 18:10 15 3 - 190° S
Mi, 29.05. 18:00 18 3 32 180° S
Mi, 29.05. 17:30 20 4 31 180° S
Mi, 29.05. 17:00 14 3 29 190° S
Mi, 29.05. 16:30 13 3 24 200° S
Mi, 29.05. 16:00 9 2 17 190° S
Ortszeit Untergrenze Bedeckung Gattung
total tief tief mittel hoch
Mi, 29.05. 14:00 840 m 8/8 8/8 - - -
Mi, 29.05. 8:00 900 m 7/8 7/8 - - -
Mi, 29.05. 2:00 1470 m 8/8 8/8 - - -
Di, 28.05. 20:00 7500 m 2/8 0/8 - - -
Di, 28.05. 14:00 1500 m 3/8 3/8 - - -
Di, 28.05. 8:00 450 m 8/8 8/8 - - -
Di, 28.05. 2:00 240 m 8/8 7/8 - - -
Mo, 27.05. 20:00 1200 m 8/8 3/8 - - -
Ortszeit Bedeckungsgrad in Achtel und Wolkenuntergrenze
Mi, 29.05. 19:00 4(960m) 7(2100m) 7(2400m)
Mi, 29.05. 18:50 4(960m) 7(2100m) 7(2400m)
Mi, 29.05. 18:40 7
Mi, 29.05. 18:30 1(900m) 3(1500m) 5(2400m)
Mi, 29.05. 18:20 1(900m) 3(1500m) 5(2400m)
Mi, 29.05. 18:10 3
Mi, 29.05. 18:00 1(1050m)
Mi, 29.05. 17:30 6(2100m)
Mi, 29.05. 17:00 7(2100m) 7(2400m)
Mi, 29.05. 16:30 1(510m) 7(1500m) 8(1800m)
Mi, 29.05. 16:00 3(930m) 5(1470m) 7(1800m)
Ortszeit Luftdruck NN (hPa) Tendenz (hPa in 3 Std.)
Mi, 29.05. 14:00 1011 - 1,0
Mi, 29.05. 8:00 1013 - 1,1
Mi, 29.05. 2:00 1016 - 1,5
Di, 28.05. 20:00 1017 - 0,7
Di, 28.05. 14:00 1019 - 0,3
Di, 28.05. 8:00 1018 + 1,3
Di, 28.05. 2:00 1017 - 0,1
Mo, 27.05. 20:00 1015 - 0,4
Ortszeit Luftdruck NN (hPa) Tendenz (hPa in 3 Std.)
Mi, 29.05. 19:00 1009 - 1,6
Mi, 29.05. 18:50 1009 keine Meldung
Mi, 29.05. 18:40 1009 keine Meldung
Mi, 29.05. 18:30 1009 - 1,6
Mi, 29.05. 18:20 1009 keine Meldung
Mi, 29.05. 18:10 1009 keine Meldung
Mi, 29.05. 18:00 1009 - 1,8
Mi, 29.05. 17:30 1009 - 1,6
Mi, 29.05. 17:00 1010 - 1,4
Mi, 29.05. 16:30 1010 - 1,2
Mi, 29.05. 16:00 1010 - 1,2
Ortszeit Schneehöhe (cm)
Mi, 29.05. 14:00 0
Mi, 29.05. 8:00 0
Mi, 29.05. 2:00 0
Di, 28.05. 20:00 0
Di, 28.05. 14:00 0
Di, 28.05. 8:00 0
Di, 28.05. 2:00 0
Mo, 27.05. 20:00 0
Ortszeit Schneehöhe (cm)
Mi, 29.05. 19:00 0
Mi, 29.05. 18:50 0
Mi, 29.05. 18:40 -
Mi, 29.05. 18:30 0
Mi, 29.05. 18:20 0
Mi, 29.05. 18:10 -
Mi, 29.05. 18:00 0
Mi, 29.05. 17:30 0
Mi, 29.05. 17:00 0
Mi, 29.05. 16:30 0
Mi, 29.05. 16:00 0
Link zu dieser Seite / Seite empfehlen

Das Wetter in ...